Austin, Mississippi
Current Conditions -  °F | °C
As of 12:55 PM on Tuesday 27 Jan 2015 (Local Time) from KUTA Reporting Station
Clear Clear  
Wind Chill: 12°   Ceiling: Unl
Heat Index: 12°   Visibility: 10mi
Dew Point:   Wind: 12mph
Humidity: 54%   Direction: 10°N
Pressure: 30.13"   Gusts: 17mph
Location:  34.6827°N, 90.3615°W
Report Text: KUTA 271855Z AUTO 01010G15KT 10SM CLR 12/03 A3013 RMK AO2
Loading
Personal Weather Stations






























Interactive Weather Map New forecast layout! Learn more

10-Day Weather Forecast

Advertisements
Track Severe Weather on mobile